createdAt,value
2023-01-13T00:02:26.294Z,36.78
2023-01-13T00:05:13.419Z,31.95
2023-01-13T00:07:53.185Z,30.45
2023-01-13T00:10:41.173Z,34.92
2023-01-13T00:13:14.284Z,35.45
2023-01-13T00:16:11.284Z,32.53
2023-01-13T00:18:54.490Z,32.10
2023-01-13T00:21:42.177Z,38.50
2023-01-13T00:24:24.228Z,35.50
2023-01-13T00:27:18.243Z,36.50
2023-01-13T00:30:05.182Z,34.75
2023-01-13T00:32:45.196Z,31.15
2023-01-13T00:35:32.180Z,29.48
2023-01-13T00:38:05.281Z,34.58
2023-01-13T00:40:54.497Z,40.78
2023-01-13T00:43:27.312Z,41.72
2023-01-13T00:46:18.279Z,44.58
2023-01-13T00:48:59.181Z,49.50
2023-01-13T00:51:53.197Z,52.53
2023-01-13T00:54:47.179Z,42.15
2023-01-13T00:57:36.256Z,42.08
2023-01-13T01:00:10.276Z,42.95
2023-01-13T01:02:57.193Z,40.58
2023-01-13T01:05:37.185Z,47.13
2023-01-13T01:08:26.757Z,48.00
2023-01-13T01:11:15.205Z,42.97
2023-01-13T01:14:04.255Z,29.92
2023-01-13T01:16:39.482Z,30.45
2023-01-13T01:19:26.258Z,29.38
2023-01-13T01:21:59.310Z,26.73
2023-01-13T01:24:46.239Z,25.48
2023-01-13T01:27:28.254Z,24.63
2023-01-13T01:30:24.248Z,24.67
2023-01-13T01:33:12.230Z,22.48
2023-01-13T01:35:46.305Z,20.98
2023-01-13T01:38:42.517Z,21.77
2023-01-13T01:41:38.235Z,21.02
2023-01-13T01:44:50.745Z,24.15
2023-01-13T01:47:25.291Z,22.38
2023-01-13T01:50:12.235Z,27.50
2023-01-13T01:52:51.353Z,34.00
2023-01-13T01:55:41.212Z,38.50
2023-01-13T01:58:27.213Z,37.58
2023-01-13T02:01:22.377Z,40.28
2023-01-13T02:04:24.247Z,38.90
2023-01-13T02:07:11.208Z,42.03
2023-01-13T02:09:44.317Z,35.00
2023-01-13T02:12:41.199Z,30.42
2023-01-13T02:15:32.244Z,28.17
2023-01-13T02:18:45.194Z,29.20
2023-01-13T02:21:49.327Z,33.05
2023-01-13T02:25:03.229Z,37.05
2023-01-13T02:28:12.241Z,30.58
2023-01-13T02:31:32.279Z,32.65
2023-01-13T02:34:32.231Z,34.88
2023-01-13T02:37:16.319Z,38.33
2023-01-13T02:40:26.245Z,41.75
2023-01-13T02:43:37.214Z,33.75
2023-01-13T02:47:00.262Z,31.23
2023-01-13T02:49:56.247Z,35.08
2023-01-13T02:52:48.255Z,32.88
2023-01-13T02:55:50.238Z,32.17
2023-01-13T02:58:39.223Z,33.53
2023-01-13T03:01:12.433Z,33.83
2023-01-13T03:03:59.223Z,28.52
2023-01-13T03:07:09.235Z,34.58
2023-01-13T03:10:18.288Z,34.38
2023-01-13T03:13:14.222Z,29.55
2023-01-13T03:16:04.238Z,33.78
2023-01-13T03:19:35.243Z,32.33
2023-01-13T03:22:30.243Z,35.78
2023-01-13T03:25:32.413Z,27.35
2023-01-13T03:28:33.282Z,30.00
2023-01-13T03:31:13.354Z,27.92
2023-01-13T03:34:20.248Z,31.10
2023-01-13T03:37:04.240Z,27.38
2023-01-13T03:40:04.345Z,24.20
2023-01-13T03:43:15.275Z,28.30
2023-01-13T03:45:57.392Z,26.45
2023-01-13T03:48:54.257Z,30.98
2023-01-13T03:51:51.082Z,27.60
2023-01-13T03:54:26.334Z,33.25
2023-01-13T03:57:18.242Z,28.38
2023-01-13T04:00:03.270Z,32.03
2023-01-13T04:03:08.236Z,26.35
2023-01-13T04:06:09.272Z,32.10
2023-01-13T04:09:02.243Z,29.95
2023-01-13T04:11:42.395Z,32.28
2023-01-13T04:14:32.264Z,31.00
2023-01-13T04:17:12.287Z,32.75
2023-01-13T04:19:59.272Z,28.80
2023-01-13T04:22:39.320Z,29.77
2023-01-13T04:25:26.307Z,31.83
2023-01-13T04:28:06.261Z,28.17
2023-01-13T04:30:53.372Z,29.25
2023-01-13T04:33:26.393Z,32.30
2023-01-13T04:36:13.268Z,28.10
2023-01-13T04:38:46.439Z,27.67
2023-01-13T04:41:56.277Z,28.25
2023-01-13T04:44:30.514Z,28.13
2023-01-13T04:47:18.299Z,25.60
2023-01-13T04:49:51.367Z,25.27
2023-01-13T04:52:38.315Z,25.75
2023-01-13T04:55:19.275Z,27.02
2023-01-13T04:58:22.302Z,23.95
2023-01-13T05:01:10.354Z,20.52
2023-01-13T05:03:43.415Z,23.73
2023-01-13T05:06:30.302Z,28.23
2023-01-13T05:09:03.364Z,25.90
2023-01-13T05:12:09.281Z,29.15
2023-01-13T05:15:07.284Z,27.58
2023-01-13T05:18:03.312Z,33.70
2023-01-13T05:20:50.319Z,30.70
2023-01-13T05:23:41.876Z,34.55
2023-01-13T05:26:31.319Z,28.17
2023-01-13T05:29:04.465Z,28.05
2023-01-13T05:31:53.275Z,24.67
2023-01-13T05:34:33.317Z,24.00
2023-01-13T05:37:27.349Z,28.50
2023-01-13T05:40:41.304Z,26.67
2023-01-13T05:43:33.311Z,26.08
2023-01-13T05:46:16.324Z,24.90
2023-01-13T05:49:13.317Z,23.05
2023-01-13T05:52:01.317Z,22.02
2023-01-13T05:54:43.275Z,26.27
2023-01-13T05:57:30.427Z,27.92
2023-01-13T06:00:03.360Z,27.58
2023-01-13T06:02:51.390Z,27.00
2023-01-13T06:05:33.327Z,28.42
2023-01-13T06:08:28.311Z,29.27
2023-01-13T06:11:15.315Z,24.00
2023-01-13T06:13:55.282Z,23.08
2023-01-13T06:16:49.325Z,22.88
2023-01-13T06:19:43.332Z,22.92
2023-01-13T06:22:35.315Z,25.60
2023-01-13T06:25:08.455Z,23.85
2023-01-13T06:27:57.319Z,21.45
2023-01-13T06:30:37.322Z,25.73
2023-01-13T06:33:41.315Z,27.15
2023-01-13T06:36:38.345Z,24.42
2023-01-13T06:39:11.455Z,22.58
2023-01-13T06:42:19.319Z,22.17
2023-01-13T06:44:52.398Z,24.52
2023-01-13T06:47:39.323Z,23.60
2023-01-13T06:50:12.447Z,26.38
2023-01-13T06:52:59.320Z,25.10
2023-01-13T06:55:32.408Z,25.65
2023-01-13T06:58:20.316Z,27.05
2023-01-13T07:00:53.710Z,22.40
2023-01-13T07:03:40.320Z,25.73
2023-01-13T07:06:21.332Z,24.08
2023-01-13T07:09:15.319Z,23.92
2023-01-13T07:12:02.340Z,21.60
2023-01-13T07:14:54.211Z,18.50
2023-01-13T07:17:41.326Z,21.52
2023-01-13T07:20:15.399Z,17.20
2023-01-13T07:23:03.323Z,20.02
2023-01-13T07:25:36.412Z,20.33
2023-01-13T07:28:23.319Z,20.88
2023-01-13T07:31:03.337Z,20.13
2023-01-13T07:34:00.030Z,18.08
2023-01-13T07:36:46.312Z,20.33
2023-01-13T07:39:19.452Z,19.15
2023-01-13T07:42:24.312Z,19.83
2023-01-13T07:45:04.360Z,18.10
2023-01-13T07:47:58.308Z,20.30
2023-01-13T07:50:45.335Z,21.48
2023-01-13T07:53:19.430Z,19.45
2023-01-13T07:56:09.683Z,19.23
2023-01-13T07:58:53.427Z,19.58
2023-01-13T08:01:47.552Z,22.38
2023-01-13T08:04:34.324Z,21.85
2023-01-13T08:07:07.470Z,18.27
2023-01-13T08:09:54.310Z,19.33
2023-01-13T08:12:52.953Z,18.40
2023-01-13T08:15:44.320Z,18.73
2023-01-13T08:18:27.366Z,17.52
2023-01-13T08:21:24.334Z,18.77
2023-01-13T08:24:18.338Z,18.17
2023-01-13T08:27:12.347Z,18.92
2023-01-13T08:30:06.360Z,18.08
2023-01-13T08:33:02.352Z,18.70
2023-01-13T08:35:59.374Z,17.38
2023-01-13T08:38:54.337Z,18.58
2023-01-13T08:41:59.386Z,17.45
2023-01-13T08:44:41.385Z,15.95
2023-01-13T08:47:37.661Z,17.50
2023-01-13T08:50:25.474Z,17.45
2023-01-13T08:52:58.551Z,17.45
2023-01-13T08:55:46.316Z,18.58
2023-01-13T08:58:26.363Z,19.30
2023-01-13T09:01:15.524Z,18.50
2023-01-13T09:03:48.449Z,17.38
2023-01-13T09:06:35.389Z,25.83
2023-01-13T09:09:08.437Z,21.20
2023-01-13T09:12:16.392Z,18.52
2023-01-13T09:14:56.369Z,19.65
2023-01-13T09:17:50.385Z,22.33
2023-01-13T09:20:44.359Z,18.85
2023-01-13T09:23:31.439Z,16.65
2023-01-13T09:26:11.371Z,18.05
2023-01-13T09:29:07.676Z,18.35
2023-01-13T09:31:54.368Z,21.70
2023-01-13T09:34:52.396Z,27.50
2023-01-13T09:37:49.370Z,20.88
2023-01-13T09:40:36.351Z,19.15
2023-01-13T09:43:42.130Z,17.08
2023-01-13T09:46:51.367Z,17.73
2023-01-13T09:49:44.377Z,18.00
2023-01-13T09:52:34.369Z,18.77
2023-01-13T09:55:22.353Z,18.13
2023-01-13T09:58:18.358Z,21.10
2023-01-13T10:01:00.504Z,20.52
2023-01-13T10:03:47.431Z,21.05
2023-01-13T10:06:45.391Z,19.38
2023-01-13T10:10:09.187Z,20.15
2023-01-13T10:13:18.397Z,19.05
2023-01-13T10:16:25.402Z,17.55
2023-01-13T10:19:29.396Z,17.27
2023-01-13T10:22:26.377Z,16.05
2023-01-13T10:25:42.382Z,17.42
2023-01-13T10:28:36.393Z,17.02
2023-01-13T10:31:32.366Z,17.02
2023-01-13T10:34:19.375Z,24.13
2023-01-13T10:37:17.371Z,19.45
2023-01-13T10:40:15.390Z,33.47
2023-01-13T10:43:13.384Z,25.88
2023-01-13T10:45:46.489Z,25.38
2023-01-13T10:48:44.400Z,31.73
2023-01-13T10:51:33.369Z,28.30
2023-01-13T10:54:27.434Z,21.13
2023-01-13T10:57:33.397Z,22.77
2023-01-13T11:00:44.378Z,19.13
2023-01-13T11:03:32.374Z,17.13
2023-01-13T11:06:13.394Z,15.52
2023-01-13T11:09:09.403Z,19.33
2023-01-13T11:12:02.437Z,19.10
2023-01-13T11:14:47.492Z,26.83
2023-01-13T11:17:41.443Z,17.23
2023-01-13T11:20:40.400Z,18.48
2023-01-13T11:23:34.418Z,17.50
2023-01-13T11:26:32.434Z,21.48
2023-01-13T11:29:41.395Z,16.48
2023-01-13T11:32:37.402Z,15.77
2023-01-13T11:35:34.391Z,16.38
2023-01-13T11:38:42.405Z,18.98
2023-01-13T11:42:15.405Z,15.77
2023-01-13T11:45:28.412Z,15.77
2023-01-13T11:48:12.452Z,14.70
2023-01-13T11:51:27.410Z,14.55
2023-01-13T11:54:23.427Z,16.95
2023-01-13T11:57:18.410Z,16.02
2023-01-13T12:01:02.474Z,15.63
2023-01-13T12:03:56.407Z,17.10
2023-01-13T12:06:54.423Z,15.95
2023-01-13T12:10:03.170Z,13.93
2023-01-13T12:12:46.420Z,14.25
2023-01-13T12:15:50.436Z,15.75
2023-01-13T12:18:37.415Z,15.15
2023-01-13T12:21:13.545Z,16.55
2023-01-13T12:24:24.408Z,16.00
2023-01-13T12:27:10.477Z,14.10
2023-01-13T12:30:02.398Z,15.88
2023-01-13T12:32:49.428Z,16.02
2023-01-13T12:35:56.423Z,16.95
2023-01-13T12:38:56.434Z,16.35
2023-01-13T12:42:17.423Z,14.82
2023-01-13T12:45:18.454Z,15.50
2023-01-13T12:47:52.544Z,16.27
2023-01-13T12:50:39.426Z,16.60
2023-01-13T12:53:38.657Z,17.70
2023-01-13T12:56:45.444Z,16.15
2023-01-13T12:59:39.626Z,17.70
2023-01-13T13:02:36.459Z,16.23
2023-01-13T13:05:28.440Z,16.50
2023-01-13T13:08:34.426Z,18.48
2023-01-13T13:11:39.439Z,15.70
2023-01-13T13:14:25.447Z,15.93
2023-01-13T13:17:41.460Z,22.58
2023-01-13T13:21:04.667Z,16.90
2023-01-13T13:23:44.344Z,19.88
2023-01-13T13:26:37.455Z,15.75
2023-01-13T13:29:29.442Z,15.10
2023-01-13T13:32:23.445Z,15.93
2023-01-13T13:35:31.478Z,16.02
2023-01-13T13:39:19.483Z,14.02
2023-01-13T13:42:43.456Z,23.23
2023-01-13T13:45:57.500Z,18.27
2023-01-13T13:48:44.576Z,18.45
2023-01-13T13:51:37.850Z,67.03
2023-01-13T13:54:28.443Z,36.10
2023-01-13T13:57:01.577Z,67.38
2023-01-13T13:59:48.472Z,63.42
2023-01-13T14:02:34.565Z,30.83
2023-01-13T14:05:21.974Z,27.50
2023-01-13T14:08:01.592Z,51.10
2023-01-13T14:10:51.448Z,42.63
2023-01-13T14:13:34.447Z,41.13
2023-01-13T14:16:22.443Z,24.00
2023-01-13T14:19:02.429Z,19.83
2023-01-13T14:21:56.411Z,20.05
2023-01-13T14:24:53.430Z,23.45
2023-01-13T14:27:27.571Z,22.33
2023-01-13T14:30:19.413Z,20.15
2023-01-13T14:32:53.507Z,24.05
2023-01-13T14:35:40.408Z,18.75
2023-01-13T14:38:29.413Z,20.77
2023-01-13T14:41:34.411Z,19.42
2023-01-13T14:44:17.437Z,24.40
2023-01-13T14:47:07.390Z,21.50
2023-01-13T14:49:51.404Z,18.05
2023-01-13T14:52:44.412Z,18.77
2023-01-13T14:55:29.569Z,19.55
2023-01-13T14:58:38.413Z,19.92
2023-01-13T15:01:43.507Z,18.98
2023-01-13T15:04:45.431Z,40.35
2023-01-13T15:07:38.397Z,24.42
2023-01-13T15:10:12.502Z,23.27
2023-01-13T15:13:01.409Z,24.33
2023-01-13T15:15:44.501Z,25.15
2023-01-13T15:18:31.397Z,23.00
2023-01-13T15:21:11.392Z,20.60
2023-01-13T15:24:05.407Z,20.65
2023-01-13T15:26:52.417Z,27.90
2023-01-13T15:29:26.552Z,23.45
2023-01-13T15:32:25.413Z,29.75
2023-01-13T15:34:58.536Z,28.40
2023-01-13T15:37:45.423Z,29.55
2023-01-13T15:40:22.516Z,31.77
2023-01-13T15:43:27.458Z,34.83
2023-01-13T15:46:19.237Z,52.85
2023-01-13T15:49:21.418Z,57.22
2023-01-13T15:51:55.515Z,35.95
2023-01-13T15:54:42.418Z,27.10
2023-01-13T15:57:46.575Z,33.67
2023-01-13T16:00:33.437Z,42.85
2023-01-13T16:03:13.489Z,30.30
2023-01-13T16:06:07.412Z,41.42
2023-01-13T16:09:03.543Z,30.17
2023-01-13T16:11:50.426Z,48.55
2023-01-13T16:14:23.575Z,38.60
2023-01-13T16:17:19.440Z,38.80
2023-01-13T16:19:53.575Z,46.85
2023-01-13T16:22:40.447Z,43.53
2023-01-13T16:25:21.440Z,34.97
2023-01-13T16:28:15.456Z,25.52
2023-01-13T16:31:02.627Z,28.90
2023-01-13T16:33:42.479Z,22.25
2023-01-13T16:36:36.480Z,25.63
2023-01-13T16:39:35.507Z,21.90
2023-01-13T16:42:29.507Z,19.90
2023-01-13T16:45:23.502Z,23.02
2023-01-13T16:48:10.511Z,21.30
2023-01-13T16:50:52.512Z,24.63
2023-01-13T16:53:46.514Z,21.75
2023-01-13T16:56:46.501Z,22.95
2023-01-13T16:59:40.513Z,21.50
2023-01-13T17:02:34.532Z,26.40
2023-01-13T17:05:22.507Z,23.23
2023-01-13T17:07:57.069Z,21.23
2023-01-13T17:10:43.500Z,20.42
2023-01-13T17:13:17.416Z,24.67
2023-01-13T17:16:04.548Z,18.02
2023-01-13T17:18:44.551Z,23.27
2023-01-13T17:21:31.555Z,20.85
2023-01-13T17:24:08.101Z,18.33
2023-01-13T17:26:56.539Z,20.25
2023-01-13T17:29:37.539Z,20.55
2023-01-13T17:32:26.537Z,24.55
2023-01-13T17:35:01.648Z,32.35
2023-01-13T17:37:48.549Z,50.60
2023-01-13T17:40:21.722Z,31.88
2023-01-13T17:43:08.537Z,42.63
2023-01-13T17:45:41.866Z,36.60
2023-01-13T17:48:28.568Z,24.77
2023-01-13T17:51:01.674Z,23.83
2023-01-13T17:53:50.536Z,20.25
2023-01-13T17:56:31.527Z,20.95
2023-01-13T17:59:19.561Z,18.70
2023-01-13T18:01:52.796Z,22.05
2023-01-13T18:04:39.540Z,21.00
2023-01-13T18:07:12.657Z,20.23
2023-01-13T18:09:59.533Z,19.60
2023-01-13T18:12:34.839Z,21.27
2023-01-13T18:15:21.546Z,22.02
2023-01-13T18:17:54.647Z,20.83
2023-01-13T18:20:59.548Z,20.20
2023-01-13T18:23:51.206Z,18.85
2023-01-13T18:26:56.550Z,19.38
2023-01-13T18:29:36.549Z,19.52
2023-01-13T18:32:16.569Z,21.55
2023-01-13T18:35:05.288Z,21.38
2023-01-13T18:37:40.450Z,18.85
2023-01-13T18:40:27.555Z,22.70
2023-01-13T18:43:00.632Z,23.08
2023-01-13T18:45:47.570Z,21.73
2023-01-13T18:48:20.646Z,22.55
2023-01-13T18:51:07.578Z,25.65
2023-01-13T18:53:40.661Z,25.25
2023-01-13T18:56:28.565Z,22.30
2023-01-13T18:59:02.661Z,21.50
2023-01-13T19:01:49.670Z,19.77
2023-01-13T19:04:30.564Z,19.70
2023-01-13T19:07:28.575Z,29.50
2023-01-13T19:10:04.339Z,37.30
2023-01-13T19:12:51.557Z,32.05
2023-01-13T19:15:31.626Z,39.83
2023-01-13T19:18:20.568Z,37.17
2023-01-13T19:21:00.570Z,31.27
2023-01-13T19:23:47.577Z,33.70
2023-01-13T19:26:27.567Z,26.58
2023-01-13T19:29:22.594Z,24.42
2023-01-13T19:32:09.634Z,24.73
2023-01-13T19:34:50.559Z,24.90
2023-01-13T19:37:39.566Z,23.25
2023-01-13T19:40:20.561Z,24.88
2023-01-13T19:43:32.577Z,23.52
2023-01-13T19:46:20.587Z,23.52
2023-01-13T19:48:53.674Z,24.17
2023-01-13T19:51:40.588Z,24.48
2023-01-13T19:54:13.665Z,24.92
2023-01-13T19:57:00.620Z,22.98
2023-01-13T19:59:33.911Z,23.90
2023-01-13T20:02:35.631Z,24.73
2023-01-13T20:05:10.338Z,21.90
2023-01-13T20:07:57.615Z,26.15
2023-01-13T20:10:37.586Z,22.45
2023-01-13T20:13:31.576Z,21.98
2023-01-13T20:16:25.606Z,22.63
2023-01-13T20:19:12.587Z,22.58
2023-01-13T20:21:52.601Z,23.88
2023-01-13T20:24:46.620Z,23.23
2023-01-13T20:27:33.623Z,28.10
2023-01-13T20:30:15.621Z,31.92
2023-01-13T20:33:02.595Z,28.65
2023-01-13T20:35:36.219Z,24.20
2023-01-13T20:38:22.618Z,29.13
2023-01-13T20:41:32.381Z,77.47
2023-01-13T20:44:19.614Z,109.35
2023-01-13T20:46:54.645Z,110.60
2023-01-13T20:49:44.607Z,106.50
2023-01-13T20:52:17.705Z,93.05
2023-01-13T20:55:04.631Z,46.83
2023-01-13T20:57:44.599Z,29.13
2023-01-13T21:00:31.634Z,29.45
2023-01-13T21:03:04.696Z,27.08
2023-01-13T21:05:51.579Z,24.02
2023-01-13T21:08:24.736Z,26.75
2023-01-13T21:11:12.611Z,23.65
2023-01-13T21:14:10.627Z,25.50
2023-01-13T21:17:04.611Z,24.20
2023-01-13T21:19:58.610Z,19.70
2023-01-13T21:22:47.609Z,21.13
2023-01-13T21:25:28.611Z,21.30
2023-01-13T21:28:23.677Z,21.35
2023-01-13T21:31:15.721Z,21.65
2023-01-13T21:33:48.780Z,22.75
2023-01-13T21:36:35.611Z,22.63
2023-01-13T21:39:15.643Z,24.98
2023-01-13T21:42:21.645Z,23.35
2023-01-13T21:45:20.610Z,23.30
2023-01-13T21:48:14.635Z,21.67
2023-01-13T21:51:08.627Z,22.42
2023-01-13T21:53:55.637Z,22.13
2023-01-13T21:56:36.631Z,23.50
2023-01-13T21:59:23.638Z,21.58
2023-01-13T22:02:25.214Z,20.67
2023-01-13T22:05:13.655Z,21.58
2023-01-13T22:07:47.744Z,24.65
2023-01-13T22:10:38.631Z,28.10
2023-01-13T22:13:36.640Z,32.17
2023-01-13T22:16:30.653Z,24.63
2023-01-13T22:19:17.635Z,25.10
2023-01-13T22:21:50.735Z,25.17
2023-01-13T22:24:37.666Z,29.83
2023-01-13T22:27:10.780Z,33.72
2023-01-13T22:29:58.630Z,31.60
2023-01-13T22:32:38.662Z,28.15
2023-01-13T22:35:32.633Z,30.85
2023-01-13T22:38:19.666Z,28.08
2023-01-13T22:40:52.775Z,30.13
2023-01-13T22:43:40.644Z,26.92
2023-01-13T22:46:18.835Z,25.42
2023-01-13T22:49:05.647Z,24.40
2023-01-13T22:51:48.672Z,30.45
2023-01-13T22:54:35.642Z,27.48
2023-01-13T22:57:08.786Z,28.35
2023-01-13T22:59:55.655Z,29.30
2023-01-13T23:02:35.654Z,32.17
2023-01-13T23:05:29.680Z,29.67
2023-01-13T23:08:17.661Z,25.55
2023-01-13T23:10:51.117Z,24.90
2023-01-13T23:13:37.668Z,24.50
2023-01-13T23:16:13.761Z,23.25
2023-01-13T23:19:00.687Z,25.35
2023-01-13T23:21:36.788Z,23.80
2023-01-13T23:24:23.669Z,27.88
2023-01-13T23:27:03.662Z,21.95
2023-01-13T23:29:50.693Z,24.35
2023-01-13T23:32:30.688Z,22.20
2023-01-13T23:35:17.656Z,21.95
2023-01-13T23:37:57.686Z,23.35
2023-01-13T23:40:51.676Z,24.92
2023-01-13T23:43:38.670Z,23.65
2023-01-13T23:46:16.766Z,23.70
2023-01-13T23:49:03.683Z,25.23
2023-01-13T23:51:43.735Z,23.88
2023-01-13T23:54:37.737Z,23.20
2023-01-13T23:57:31.696Z,25.77
